LFMN/NCE METAR and TAF weather

Enter ICAO airport designator
Station Type Date Time Source
LFMN METAR 2018/12/17 02:30 UTC NOAA

LFMN 170230Z 09012KT 9999 -RA OVC010 11/10 Q1013 NOSIG


Station Type Date Time Source
LFMN Decoded METAR 2018/12/17 02:30 UTC NOAA

Nice, France (LFMN) 43-39N 007-12E 10M
Dec 16, 2018 - 09:30 PM EST / 2018.12.17 0230 UTC
Wind: from the E (090 degrees) at 14 MPH (12 KT):0
Visibility: greater than 7 mile(s):0
Sky conditions: overcast
Weather: light rain
Temperature: 51 F (11 C)
Dew Point: 50 F (10 C)
Relative Humidity: 93%
Pressure (altimeter): 29.91 in. Hg (1013 hPa)
ob: LFMN 170230Z 09012KT 9999 -RA OVC010 11/10 Q1013 NOSIG
cycle: 2

Station Type Date Time Source
LFMN TAF 2018/12/17 03:24 UTC NOAA

TAF LFMN 170200Z 1703/1809 34010KT 9999 OVC010 PROB40
TEMPO 1703/1704 RA
BECMG 1712/1714 24008KT SCT020
BECMG 1719/1721 34010KT CAVOK


Example: see airport list